Portada
METAR-TAF:

METAR-TAF

Aeropuertos :

Aeropuerto de Sønderborg

Sønderborg, Dinamarca

latitud: 54-58N, longitud: 009-47E, altitud: 7 m

Observación

El informe se hizo hace 21 minutos, a las 10:50 UTC
Viento 5 kt del suroeste, variando entre sur-sureste y oeste-noroeste
Temperatura 11°C
Humedad 54%
Presión 1014 hPa
Visibilidad 10 km o más

METAR: EKSB 081050Z AUTO 22005KT 160V300 9999NDV SCT210/// 11/02 Q1014

Hora: 13:11 (11:11 UTC)

Pronóstico

El informe se hizo hace 23 horas y 16 minutos, a las 11:55 UTC
Pronóstico válido del 07 a las 12 UTC al 07 a las 18 UTC
Viento 8 kt del oeste-noroeste
Visibilidad 10 km o más
Cielo nuboso a una altura de 2500 ft
Temporalmente
del 07 a las 12 UTC al 07 a las 18 UTC
Visibilidad: 4000 m
Cielo nuboso a una altura de 1000 ft
Cielo nuboso a una altura de 2000 ft, Cumulonimbus.
chaparrones de lluvia

TAF: EKSB 071155Z 0712/0718 29008KT 9999 BKN025 TEMPO 0712/0718 4000 SHRA BKN010 BKN020CB

Observaciones y pronósticos meteorológicos de más de 4000 aeropuertos (mensajes METAR y TAF).

Los puntos amarillos y rojos representan las estaciones disponibles.

Ponga el ratón en el punto deseado para ver el nombre de la estación.

Haga clic para ver las observaciones y los pronósticos meteorológicos.

Para cambiar el mapa : haga clic en los botones verdes con una cruz de color negro para hacer un zoom, en el botón verde con un guión para alejar o en las flechas verdes para mapas adyacentes.


METAR-TAF: